DAUU/OGX METAR and TAF weather

Enter ICAO airport designator
Station Type Date Time Source
DAUU METAR 2019/09/20 09:00 UTC NOAA

DAUU 200900Z 18010KT CAVOK 37/06 Q1016


Station Type Date Time Source
DAUU Decoded METAR 2019/09/20 09:00 UTC NOAA

Ouargla, Algeria (DAUU) 31-55N 005-24E 141M
Sep 20, 2019 - 05:00 AM EDT / 2019.09.20 0900 UTC
Wind: from the S (180 degrees) at 12 MPH (10 KT):0
Visibility: greater than 7 mile(s):0
Temperature: 98 F (37 C)
Dew Point: 42 F (6 C)
Relative Humidity: 14%
Pressure (altimeter): 30.00 in. Hg (1016 hPa)
ob: DAUU 200900Z 18010KT CAVOK 37/06 Q1016
cycle: 9

Station Type Date Time Source
DAUU TAF 2017/11/09 18:03 UTC NOAA

TAF DAUU 091700Z 0918/1009 34012KT 9999 FEW040 SCT100 PROB40
TEMPO 0918/0924 34015G25KT 5000 -TSRA FEW036CB

Example: see airport list